createdAt,value
2018-12-16T00:00:09.877Z,10.47
2018-12-16T00:05:27.374Z,9.57
2018-12-16T00:10:44.848Z,8.40
2018-12-16T00:16:02.420Z,9.00
2018-12-16T00:21:20.191Z,9.90
2018-12-16T00:26:49.428Z,11.43
2018-12-16T00:32:06.921Z,9.18
2018-12-16T00:37:24.673Z,10.03
2018-12-16T00:42:42.166Z,9.20
2018-12-16T00:47:59.661Z,9.43
2018-12-16T00:53:17.207Z,9.37
2018-12-16T00:58:34.684Z,10.43
2018-12-16T01:03:52.149Z,9.20
2018-12-16T01:09:09.729Z,9.97
2018-12-16T01:14:27.312Z,10.13
2018-12-16T01:19:44.785Z,9.80
2018-12-16T01:25:02.264Z,11.80
2018-12-16T01:30:19.738Z,11.28
2018-12-16T01:35:37.238Z,11.83
2018-12-16T01:40:54.696Z,10.30
2018-12-16T01:46:12.414Z,10.83
2018-12-16T01:51:30.167Z,9.87
2018-12-16T01:56:47.897Z,10.73
2018-12-16T02:02:05.389Z,11.50
2018-12-16T02:07:22.853Z,11.40
2018-12-16T02:12:40.471Z,11.87
2018-12-16T02:17:57.948Z,10.68
2018-12-16T02:23:15.782Z,11.43
2018-12-16T02:28:33.257Z,10.63
2018-12-16T02:33:50.730Z,11.53
2018-12-16T02:39:08.284Z,11.43
2018-12-16T02:44:25.754Z,11.23
2018-12-16T02:49:43.218Z,11.33
2018-12-16T02:55:00.687Z,11.53
2018-12-16T03:00:18.311Z,11.33
2018-12-16T03:05:35.849Z,13.70
2018-12-16T03:10:53.330Z,12.50
2018-12-16T03:16:10.813Z,12.60
2018-12-16T03:21:28.293Z,13.23
2018-12-16T03:26:45.766Z,12.15
2018-12-16T03:32:03.580Z,12.33
2018-12-16T03:37:21.334Z,13.37
2018-12-16T03:42:38.804Z,12.10
2018-12-16T03:47:56.272Z,11.53
2018-12-16T03:53:19.666Z,13.43
2018-12-16T03:58:33.238Z,12.77
2018-12-16T04:03:50.714Z,11.23
2018-12-16T04:09:08.199Z,11.87
2018-12-16T04:14:25.676Z,12.63
2018-12-16T04:19:43.146Z,13.75
2018-12-16T04:25:00.622Z,13.10
2018-12-16T04:30:18.102Z,14.23
2018-12-16T04:35:35.569Z,14.20
2018-12-16T04:40:53.021Z,14.33
2018-12-16T04:46:10.489Z,12.73
2018-12-16T04:51:27.971Z,14.50
2018-12-16T04:56:45.441Z,13.30
2018-12-16T05:02:02.933Z,12.47
2018-12-16T05:07:20.498Z,12.33
2018-12-16T05:12:38.273Z,13.03
2018-12-16T05:17:55.756Z,13.70
2018-12-16T05:23:13.218Z,13.10
2018-12-16T05:28:30.693Z,12.33
2018-12-16T05:33:48.168Z,14.37
2018-12-16T05:39:06.249Z,13.13
2018-12-16T05:44:23.711Z,13.97
2018-12-16T05:49:41.662Z,14.30
2018-12-16T05:54:59.153Z,11.97
2018-12-16T06:00:16.625Z,14.05
2018-12-16T06:05:34.096Z,15.27
2018-12-16T06:10:51.561Z,14.33
2018-12-16T06:16:09.050Z,11.97
2018-12-16T06:21:26.515Z,13.43
2018-12-16T06:26:43.988Z,13.60
2018-12-16T06:32:01.456Z,13.40
2018-12-16T06:37:18.926Z,13.32
2018-12-16T06:42:36.755Z,13.00
2018-12-16T06:47:54.252Z,13.17
2018-12-16T06:53:11.722Z,12.63
2018-12-16T06:58:29.368Z,13.17
2018-12-16T07:03:46.840Z,13.73
2018-12-16T07:09:05.984Z,14.33
2018-12-16T07:14:23.440Z,13.60
2018-12-16T07:19:40.940Z,14.20
2018-12-16T07:24:58.430Z,13.43
2018-12-16T07:30:16.017Z,13.22
2018-12-16T07:35:33.481Z,14.10
2018-12-16T07:40:51.513Z,13.20
2018-12-16T07:46:09.180Z,14.50
2018-12-16T07:51:26.713Z,14.97
2018-12-16T07:56:44.188Z,15.90
2018-12-16T08:02:01.742Z,17.25
2018-12-16T08:07:19.332Z,15.00
2018-12-16T08:12:36.794Z,14.73
2018-12-16T08:17:54.268Z,15.57
2018-12-16T08:23:11.751Z,14.40
2018-12-16T08:28:29.237Z,16.40
2018-12-16T08:33:46.704Z,16.57
2018-12-16T08:39:05.947Z,15.57
2018-12-16T08:44:23.465Z,15.67
2018-12-16T08:49:40.998Z,16.30
2018-12-16T08:54:58.722Z,16.37
2018-12-16T09:00:16.457Z,16.90
2018-12-16T09:05:34.196Z,16.70
2018-12-16T09:10:51.669Z,17.43
2018-12-16T09:16:09.131Z,17.50
2018-12-16T09:21:26.807Z,16.90
2018-12-16T09:26:44.280Z,17.23
2018-12-16T09:32:02.812Z,17.97
2018-12-16T09:37:20.761Z,17.03
2018-12-16T09:42:38.318Z,18.37
2018-12-16T09:47:56.193Z,16.80
2018-12-16T09:53:14.053Z,17.03
2018-12-16T09:58:31.529Z,16.07
2018-12-16T10:03:49.002Z,15.53
2018-12-16T10:09:07.671Z,15.60
2018-12-16T10:14:25.141Z,15.08
2018-12-16T10:19:42.613Z,16.33
2018-12-16T10:25:00.078Z,15.68
2018-12-16T10:30:17.545Z,16.55
2018-12-16T10:35:35.008Z,15.85
2018-12-16T10:40:52.469Z,15.97
2018-12-16T10:46:09.929Z,16.37
2018-12-16T10:51:27.413Z,17.03
2018-12-16T10:56:44.896Z,17.55
2018-12-16T11:02:02.353Z,15.40
2018-12-16T11:07:19.854Z,17.55
2018-12-16T11:12:37.912Z,17.93
2018-12-16T11:17:55.376Z,18.63
2018-12-16T11:23:13.874Z,19.07
2018-12-16T11:28:31.354Z,18.57
2018-12-16T11:33:48.816Z,18.53
2018-12-16T11:39:07.797Z,19.50
2018-12-16T11:44:25.505Z,17.60
2018-12-16T11:49:44.429Z,17.20
2018-12-16T11:55:02.171Z,17.80
2018-12-16T12:00:20.065Z,18.17
2018-12-16T12:05:37.700Z,19.03
2018-12-16T12:10:55.227Z,18.93
2018-12-16T12:16:12.689Z,21.20
2018-12-16T12:21:31.350Z,19.80
2018-12-16T12:26:48.809Z,20.17
2018-12-16T12:32:06.363Z,20.77
2018-12-16T12:37:24.002Z,19.17
2018-12-16T12:42:41.641Z,18.10
2018-12-16T12:47:59.128Z,19.67
2018-12-16T12:53:16.667Z,18.40
2018-12-16T12:58:34.272Z,20.90
2018-12-16T13:03:51.724Z,19.33
2018-12-16T13:09:09.194Z,20.43
2018-12-16T13:14:26.734Z,21.00
2018-12-16T13:19:44.324Z,20.47
2018-12-16T13:25:13.757Z,20.03
2018-12-16T13:30:31.228Z,19.57
2018-12-16T13:35:48.690Z,20.92
2018-12-16T13:41:06.172Z,18.57
2018-12-16T13:46:23.629Z,20.10
2018-12-16T13:51:41.088Z,18.93
2018-12-16T13:56:58.556Z,19.53
2018-12-16T14:02:16.037Z,19.87
2018-12-16T14:07:33.505Z,19.27
2018-12-16T14:12:50.964Z,18.10
2018-12-16T14:18:08.438Z,19.17
2018-12-16T14:23:25.919Z,17.53
2018-12-16T14:28:43.450Z,18.20
2018-12-16T14:34:00.976Z,18.13
2018-12-16T14:39:18.445Z,19.13
2018-12-16T14:44:35.915Z,17.43
2018-12-16T14:49:53.383Z,17.87
2018-12-16T14:55:10.845Z,18.80
2018-12-16T15:00:28.325Z,17.90
2018-12-16T15:05:45.797Z,18.37
2018-12-16T15:11:03.362Z,18.03
2018-12-16T15:16:21.572Z,19.00
2018-12-16T15:21:39.142Z,17.55
2018-12-16T15:26:56.617Z,18.23
2018-12-16T15:32:14.180Z,18.07
2018-12-16T15:37:31.660Z,19.40
2018-12-16T15:42:49.143Z,17.53
2018-12-16T15:48:06.649Z,18.27
2018-12-16T15:53:24.118Z,18.77
2018-12-16T15:58:41.602Z,16.77
2018-12-16T16:03:59.074Z,17.47
2018-12-16T16:09:16.536Z,15.77
2018-12-16T16:14:34.001Z,18.47
2018-12-16T16:19:51.472Z,17.13
2018-12-16T16:25:09.198Z,16.90
2018-12-16T16:30:26.663Z,17.77
2018-12-16T16:35:44.133Z,17.07
2018-12-16T16:41:01.982Z,16.83
2018-12-16T16:46:19.442Z,16.97
2018-12-16T16:51:36.916Z,16.37
2018-12-16T16:56:54.407Z,17.67
2018-12-16T17:02:11.878Z,18.50
2018-12-16T17:07:29.350Z,18.03
2018-12-16T17:12:47.078Z,16.30
2018-12-16T17:18:04.537Z,17.83
2018-12-16T17:23:22.016Z,17.40
2018-12-16T17:28:39.578Z,16.10
2018-12-16T17:33:57.043Z,17.33
2018-12-16T17:39:14.786Z,17.03
2018-12-16T17:44:32.256Z,17.30
2018-12-16T17:49:49.726Z,16.80
2018-12-16T17:55:07.364Z,15.67
2018-12-16T18:00:25.468Z,15.97
2018-12-16T18:05:42.945Z,16.37
2018-12-16T18:11:00.402Z,15.73
2018-12-16T18:16:17.857Z,15.28
2018-12-16T18:21:35.425Z,16.77
2018-12-16T18:26:52.897Z,15.40
2018-12-16T18:32:10.373Z,15.50
2018-12-16T18:37:27.923Z,15.47
2018-12-16T18:42:45.386Z,15.97
2018-12-16T18:48:02.924Z,15.90
2018-12-16T18:53:20.391Z,15.47
2018-12-16T18:58:38.379Z,15.80
2018-12-16T19:03:56.258Z,17.37
2018-12-16T19:09:13.964Z,16.63
2018-12-16T19:14:31.821Z,16.83
2018-12-16T19:19:49.320Z,16.10
2018-12-16T19:25:06.954Z,16.23
2018-12-16T19:30:24.741Z,16.50
2018-12-16T19:35:42.206Z,14.77
2018-12-16T19:40:59.760Z,15.90
2018-12-16T19:46:17.239Z,14.67
2018-12-16T19:51:34.691Z,15.33
2018-12-16T19:56:52.169Z,15.87
2018-12-16T20:02:09.654Z,14.73
2018-12-16T20:07:27.111Z,14.07
2018-12-16T20:12:44.569Z,14.17
2018-12-16T20:18:02.048Z,14.00
2018-12-16T20:23:19.507Z,14.33
2018-12-16T20:28:36.968Z,13.72
2018-12-16T20:33:54.437Z,15.97
2018-12-16T20:39:11.980Z,14.63
2018-12-16T20:44:29.480Z,14.70
2018-12-16T20:49:46.956Z,13.93
2018-12-16T20:55:06.098Z,13.80
2018-12-16T21:00:23.631Z,12.97
2018-12-16T21:05:41.103Z,13.85
2018-12-16T21:11:00.558Z,14.97
2018-12-16T21:16:23.436Z,14.40
2018-12-16T21:21:40.917Z,13.43
2018-12-16T21:26:58.575Z,12.90
2018-12-16T21:32:16.037Z,13.43
2018-12-16T21:37:33.493Z,12.97
2018-12-16T21:42:50.968Z,13.45
2018-12-16T21:48:08.435Z,12.00
2018-12-16T21:53:25.909Z,13.43
2018-12-16T21:58:43.377Z,13.47
2018-12-16T22:04:00.836Z,12.97
2018-12-16T22:09:18.330Z,13.53
2018-12-16T22:14:35.788Z,11.80
2018-12-16T22:19:53.254Z,14.53
2018-12-16T22:25:10.720Z,12.73
2018-12-16T22:30:28.489Z,12.93
2018-12-16T22:35:45.954Z,12.63
2018-12-16T22:41:03.433Z,12.60
2018-12-16T22:46:21.386Z,12.77
2018-12-16T22:51:38.858Z,11.70
2018-12-16T22:56:56.328Z,12.27
2018-12-16T23:02:13.795Z,12.53
2018-12-16T23:07:31.259Z,11.07
2018-12-16T23:12:48.731Z,11.07
2018-12-16T23:18:06.464Z,11.27
2018-12-16T23:23:23.929Z,10.73
2018-12-16T23:28:41.493Z,11.00
2018-12-16T23:33:58.970Z,9.78
2018-12-16T23:39:16.423Z,11.00
2018-12-16T23:44:33.888Z,10.87
2018-12-16T23:49:51.365Z,10.13
2018-12-16T23:55:09.087Z,10.67
